sensor_id;sensor_type;location;lat;lon;timestamp;temperature;humidity
21355;DHT22;10835;50.148;19.760;2022-11-23T00:01:17;18.90;41.20
21355;DHT22;10835;50.148;19.760;2022-11-23T00:03:49;18.10;41.20
21355;DHT22;10835;50.148;19.760;2022-11-23T00:06:18;18.50;41.50
21355;DHT22;10835;50.148;19.760;2022-11-23T00:08:49;18.70;41.40
21355;DHT22;10835;50.148;19.760;2022-11-23T00:11:18;18.80;41.10
21355;DHT22;10835;50.148;19.760;2022-11-23T00:13:47;18.80;41.00
21355;DHT22;10835;50.148;19.760;2022-11-23T00:16:17;18.20;41.30
21355;DHT22;10835;50.148;19.760;2022-11-23T00:18:47;18.50;42.50
21355;DHT22;10835;50.148;19.760;2022-11-23T00:21:17;18.40;41.70
21355;DHT22;10835;50.148;19.760;2022-11-23T00:23:46;18.40;42.30
21355;DHT22;10835;50.148;19.760;2022-11-23T00:26:14;18.70;42.00
21355;DHT22;10835;50.148;19.760;2022-11-23T00:28:43;18.70;41.50
21355;DHT22;10835;50.148;19.760;2022-11-23T00:31:14;18.70;41.70
21355;DHT22;10835;50.148;19.760;2022-11-23T00:33:42;18.80;41.50
21355;DHT22;10835;50.148;19.760;2022-11-23T00:36:16;18.90;40.30
21355;DHT22;10835;50.148;19.760;2022-11-23T00:38:44;18.90;40.40
21355;DHT22;10835;50.148;19.760;2022-11-23T00:41:14;18.90;40.20
21355;DHT22;10835;50.148;19.760;2022-11-23T00:43:42;18.60;40.70
21355;DHT22;10835;50.148;19.760;2022-11-23T00:46:12;18.70;40.30
21355;DHT22;10835;50.148;19.760;2022-11-23T00:48:41;18.60;40.60
21355;DHT22;10835;50.148;19.760;2022-11-23T00:51:11;18.70;40.70
21355;DHT22;10835;50.148;19.760;2022-11-23T00:53:41;18.90;40.60
21355;DHT22;10835;50.148;19.760;2022-11-23T00:56:10;18.90;40.10
21355;DHT22;10835;50.148;19.760;2022-11-23T00:58:38;18.90;39.80
21355;DHT22;10835;50.148;19.760;2022-11-23T01:01:08;18.90;40.20
21355;DHT22;10835;50.148;19.760;2022-11-23T01:03:39;18.90;40.20
21355;DHT22;10835;50.148;19.760;2022-11-23T01:06:08;19.00;39.90
21355;DHT22;10835;50.148;19.760;2022-11-23T01:08:37;18.80;40.50
21355;DHT22;10835;50.148;19.760;2022-11-23T01:11:08;18.90;40.40
21355;DHT22;10835;50.148;19.760;2022-11-23T01:13:38;19.00;40.20
21355;DHT22;10835;50.148;19.760;2022-11-23T01:16:07;19.00;39.90
21355;DHT22;10835;50.148;19.760;2022-11-23T01:18:36;19.00;40.20
21355;DHT22;10835;50.148;19.760;2022-11-23T01:21:04;19.10;40.10
21355;DHT22;10835;50.148;19.760;2022-11-23T01:23:32;19.20;40.00
21355;DHT22;10835;50.148;19.760;2022-11-23T01:26:08;19.30;40.20
21355;DHT22;10835;50.148;19.760;2022-11-23T01:28:38;19.30;40.40
21355;DHT22;10835;50.148;19.760;2022-11-23T01:31:08;19.30;40.50
21355;DHT22;10835;50.148;19.760;2022-11-23T01:33:36;19.30;40.70
21355;DHT22;10835;50.148;19.760;2022-11-23T01:36:09;19.20;40.50
21355;DHT22;10835;50.148;19.760;2022-11-23T01:38:37;19.20;40.50
21355;DHT22;10835;50.148;19.760;2022-11-23T01:41:12;19.30;40.60
21355;DHT22;10835;50.148;19.760;2022-11-23T01:43:40;19.30;40.50
21355;DHT22;10835;50.148;19.760;2022-11-23T01:46:08;19.40;40.50
21355;DHT22;10835;50.148;19.760;2022-11-23T01:48:41;19.40;40.60
21355;DHT22;10835;50.148;19.760;2022-11-23T01:51:12;19.40;40.50
21355;DHT22;10835;50.148;19.760;2022-11-23T01:53:42;19.50;40.70
21355;DHT22;10835;50.148;19.760;2022-11-23T01:56:15;19.40;40.80
21355;DHT22;10835;50.148;19.760;2022-11-23T01:58:46;19.30;40.90
21355;DHT22;10835;50.148;19.760;2022-11-23T02:01:16;19.30;41.10
21355;DHT22;10835;50.148;19.760;2022-11-23T02:03:46;19.20;41.30
21355;DHT22;10835;50.148;19.760;2022-11-23T02:06:16;19.00;41.30
21355;DHT22;10835;50.148;19.760;2022-11-23T02:08:45;18.90;41.60
21355;DHT22;10835;50.148;19.760;2022-11-23T02:11:15;18.90;41.80
21355;DHT22;10835;50.148;19.760;2022-11-23T02:13:46;18.80;41.90
21355;DHT22;10835;50.148;19.760;2022-11-23T02:16:15;18.80;41.80
21355;DHT22;10835;50.148;19.760;2022-11-23T02:18:46;18.80;42.00
21355;DHT22;10835;50.148;19.760;2022-11-23T02:21:18;18.80;42.10
21355;DHT22;10835;50.148;19.760;2022-11-23T02:23:51;18.80;42.10
21355;DHT22;10835;50.148;19.760;2022-11-23T02:26:24;18.90;41.90
21355;DHT22;10835;50.148;19.760;2022-11-23T02:28:56;18.90;41.80
21355;DHT22;10835;50.148;19.760;2022-11-23T02:31:28;19.00;41.70
21355;DHT22;10835;50.148;19.760;2022-11-23T02:33:56;19.00;41.60
21355;DHT22;10835;50.148;19.760;2022-11-23T02:36:38;18.90;41.70
21355;DHT22;10835;50.148;19.760;2022-11-23T02:39:10;18.90;41.70
21355;DHT22;10835;50.148;19.760;2022-11-23T02:41:42;19.00;42.30
21355;DHT22;10835;50.148;19.760;2022-11-23T02:44:19;19.00;41.70
21355;DHT22;10835;50.148;19.760;2022-11-23T02:46:49;18.90;41.70
21355;DHT22;10835;50.148;19.760;2022-11-23T02:49:18;19.10;41.70
21355;DHT22;10835;50.148;19.760;2022-11-23T02:51:46;19.10;41.50
21355;DHT22;10835;50.148;19.760;2022-11-23T02:54:14;19.10;41.50
21355;DHT22;10835;50.148;19.760;2022-11-23T02:56:43;18.90;41.80
21355;DHT22;10835;50.148;19.760;2022-11-23T02:59:12;18.90;41.80
21355;DHT22;10835;50.148;19.760;2022-11-23T03:01:42;18.90;41.80
21355;DHT22;10835;50.148;19.760;2022-11-23T03:04:12;19.10;41.80
21355;DHT22;10835;50.148;19.760;2022-11-23T03:06:40;19.10;41.60
21355;DHT22;10835;50.148;19.760;2022-11-23T03:09:08;19.20;41.40
21355;DHT22;10835;50.148;19.760;2022-11-23T03:11:37;19.40;41.30
21355;DHT22;10835;50.148;19.760;2022-11-23T03:14:06;19.10;41.30
21355;DHT22;10835;50.148;19.760;2022-11-23T03:16:42;19.20;41.60
21355;DHT22;10835;50.148;19.760;2022-11-23T03:19:15;19.20;41.30
21355;DHT22;10835;50.148;19.760;2022-11-23T03:21:43;19.40;41.50
21355;DHT22;10835;50.148;19.760;2022-11-23T03:24:11;19.40;41.20
21355;DHT22;10835;50.148;19.760;2022-11-23T03:26:39;19.40;41.20
21355;DHT22;10835;50.148;19.760;2022-11-23T03:29:17;19.40;41.10
21355;DHT22;10835;50.148;19.760;2022-11-23T03:31:46;19.40;41.10
21355;DHT22;10835;50.148;19.760;2022-11-23T03:34:18;19.30;41.30
21355;DHT22;10835;50.148;19.760;2022-11-23T03:36:47;19.30;41.40
21355;DHT22;10835;50.148;19.760;2022-11-23T03:39:15;19.30;41.40
21355;DHT22;10835;50.148;19.760;2022-11-23T03:41:49;19.20;41.30
21355;DHT22;10835;50.148;19.760;2022-11-23T03:44:21;19.00;41.60
21355;DHT22;10835;50.148;19.760;2022-11-23T03:46:53;18.80;41.90
21355;DHT22;10835;50.148;19.760;2022-11-23T03:49:21;18.70;42.30
21355;DHT22;10835;50.148;19.760;2022-11-23T03:51:52;18.50;42.50
21355;DHT22;10835;50.148;19.760;2022-11-23T03:54:20;18.50;42.90
21355;DHT22;10835;50.148;19.760;2022-11-23T03:56:48;18.20;42.90
21355;DHT22;10835;50.148;19.760;2022-11-23T03:59:16;18.10;43.10
21355;DHT22;10835;50.148;19.760;2022-11-23T04:01:46;18.00;43.30
21355;DHT22;10835;50.148;19.760;2022-11-23T04:04:20;18.00;43.50
21355;DHT22;10835;50.148;19.760;2022-11-23T04:07:11;17.60;44.30
21355;DHT22;10835;50.148;19.760;2022-11-23T04:09:46;17.70;44.40
21355;DHT22;10835;50.148;19.760;2022-11-23T04:12:32;17.80;44.40
21355;DHT22;10835;50.148;19.760;2022-11-23T04:15:00;18.10;44.00
21355;DHT22;10835;50.148;19.760;2022-11-23T04:17:29;18.10;43.80
21355;DHT22;10835;50.148;19.760;2022-11-23T04:19:58;18.00;43.80
21355;DHT22;10835;50.148;19.760;2022-11-23T04:22:26;17.90;44.00
21355;DHT22;10835;50.148;19.760;2022-11-23T04:24:54;17.80;44.10
21355;DHT22;10835;50.148;19.760;2022-11-23T04:27:22;17.80;44.10
21355;DHT22;10835;50.148;19.760;2022-11-23T04:29:50;17.90;44.00
21355;DHT22;10835;50.148;19.760;2022-11-23T04:32:18;17.90;43.90
21355;DHT22;10835;50.148;19.760;2022-11-23T04:34:49;17.80;44.00
21355;DHT22;10835;50.148;19.760;2022-11-23T04:37:57;17.70;44.30
21355;DHT22;10835;50.148;19.760;2022-11-23T04:40:28;17.90;44.10
21355;DHT22;10835;50.148;19.760;2022-11-23T04:43:01;18.00;43.90
21355;DHT22;10835;50.148;19.760;2022-11-23T04:45:36;18.10;43.80
21355;DHT22;10835;50.148;19.760;2022-11-23T04:48:06;18.10;43.70
21355;DHT22;10835;50.148;19.760;2022-11-23T04:50:37;18.30;43.40
21355;DHT22;10835;50.148;19.760;2022-11-23T04:53:09;18.40;43.00
21355;DHT22;10835;50.148;19.760;2022-11-23T04:55:45;18.60;42.70
21355;DHT22;10835;50.148;19.760;2022-11-23T04:58:15;18.80;42.40
21355;DHT22;10835;50.148;19.760;2022-11-23T05:00:45;18.90;42.20
21355;DHT22;10835;50.148;19.760;2022-11-23T05:03:14;18.90;41.90
21355;DHT22;10835;50.148;19.760;2022-11-23T05:05:43;19.00;41.80
21355;DHT22;10835;50.148;19.760;2022-11-23T05:08:13;19.00;41.60
21355;DHT22;10835;50.148;19.760;2022-11-23T05:11:02;18.90;41.70
21355;DHT22;10835;50.148;19.760;2022-11-23T05:13:30;18.90;42.20
21355;DHT22;10835;50.148;19.760;2022-11-23T05:15:58;18.90;41.80
21355;DHT22;10835;50.148;19.760;2022-11-23T05:18:28;18.90;41.70
21355;DHT22;10835;50.148;19.760;2022-11-23T05:20:57;18.90;41.60
21355;DHT22;10835;50.148;19.760;2022-11-23T05:23:26;19.00;41.40
21355;DHT22;10835;50.148;19.760;2022-11-23T05:25:54;19.10;41.30
21355;DHT22;10835;50.148;19.760;2022-11-23T05:28:23;19.10;41.30
21355;DHT22;10835;50.148;19.760;2022-11-23T05:31:11;19.10;41.30
21355;DHT22;10835;50.148;19.760;2022-11-23T05:33:41;18.90;41.40
21355;DHT22;10835;50.148;19.760;2022-11-23T05:36:10;18.90;41.50
21355;DHT22;10835;50.148;19.760;2022-11-23T05:38:41;18.60;42.20
21355;DHT22;10835;50.148;19.760;2022-11-23T05:41:18;18.60;42.00
21355;DHT22;10835;50.148;19.760;2022-11-23T05:43:49;18.50;42.30
21355;DHT22;10835;50.148;19.760;2022-11-23T05:46:22;18.20;42.40
21355;DHT22;10835;50.148;19.760;2022-11-23T05:48:50;18.10;42.70
21355;DHT22;10835;50.148;19.760;2022-11-23T05:51:20;17.90;42.80
21355;DHT22;10835;50.148;19.760;2022-11-23T05:53:48;17.80;43.20
21355;DHT22;10835;50.148;19.760;2022-11-23T05:56:24;17.80;43.20
21355;DHT22;10835;50.148;19.760;2022-11-23T05:59:03;17.90;43.30
21355;DHT22;10835;50.148;19.760;2022-11-23T06:01:34;18.10;43.10
21355;DHT22;10835;50.148;19.760;2022-11-23T06:04:04;17.90;42.90
21355;DHT22;10835;50.148;19.760;2022-11-23T06:06:42;17.60;43.50
21355;DHT22;10835;50.148;19.760;2022-11-23T06:09:10;17.60;44.30
21355;DHT22;10835;50.148;19.760;2022-11-23T06:11:42;17.60;43.60
21355;DHT22;10835;50.148;19.760;2022-11-23T06:14:15;17.40;43.70
21355;DHT22;10835;50.148;19.760;2022-11-23T06:16:45;16.90;44.50
21355;DHT22;10835;50.148;19.760;2022-11-23T06:19:32;16.70;44.60
21355;DHT22;10835;50.148;19.760;2022-11-23T06:22:04;16.60;45.30
21355;DHT22;10835;50.148;19.760;2022-11-23T06:24:39;16.50;45.30
21355;DHT22;10835;50.148;19.760;2022-11-23T06:27:26;16.50;45.70
21355;DHT22;10835;50.148;19.760;2022-11-23T06:29:54;16.70;45.20
21355;DHT22;10835;50.148;19.760;2022-11-23T06:32:25;17.00;44.70
21355;DHT22;10835;50.148;19.760;2022-11-23T06:34:53;16.70;45.10
21355;DHT22;10835;50.148;19.760;2022-11-23T06:37:30;16.60;44.70
21355;DHT22;10835;50.148;19.760;2022-11-23T06:39:58;16.20;44.90
21355;DHT22;10835;50.148;19.760;2022-11-23T06:42:26;15.90;45.70
21355;DHT22;10835;50.148;19.760;2022-11-23T06:45:10;16.00;46.20
21355;DHT22;10835;50.148;19.760;2022-11-23T06:47:39;16.10;46.10
21355;DHT22;10835;50.148;19.760;2022-11-23T06:50:07;15.90;45.80
21355;DHT22;10835;50.148;19.760;2022-11-23T06:52:38;15.90;46.30
21355;DHT22;10835;50.148;19.760;2022-11-23T06:55:06;16.00;46.10
21355;DHT22;10835;50.148;19.760;2022-11-23T06:57:35;16.00;46.20
21355;DHT22;10835;50.148;19.760;2022-11-23T07:00:04;16.30;46.10
21355;DHT22;10835;50.148;19.760;2022-11-23T07:02:36;16.10;45.70
21355;DHT22;10835;50.148;19.760;2022-11-23T07:05:04;15.90;45.80
21355;DHT22;10835;50.148;19.760;2022-11-23T07:07:35;15.40;46.10
21355;DHT22;10835;50.148;19.760;2022-11-23T07:10:13;15.40;46.70
21355;DHT22;10835;50.148;19.760;2022-11-23T07:12:44;15.40;47.20
21355;DHT22;10835;50.148;19.760;2022-11-23T07:15:16;15.60;47.20
21355;DHT22;10835;50.148;19.760;2022-11-23T07:17:45;15.80;46.90
21355;DHT22;10835;50.148;19.760;2022-11-23T07:20:13;15.50;46.60
21355;DHT22;10835;50.148;19.760;2022-11-23T07:22:43;15.60;47.20
21355;DHT22;10835;50.148;19.760;2022-11-23T07:25:12;15.20;47.00
21355;DHT22;10835;50.148;19.760;2022-11-23T07:27:44;14.80;47.80
21355;DHT22;10835;50.148;19.760;2022-11-23T07:30:12;14.90;48.10
21355;DHT22;10835;50.148;19.760;2022-11-23T07:32:42;15.00;48.20
21355;DHT22;10835;50.148;19.760;2022-11-23T07:35:10;15.40;48.10
21355;DHT22;10835;50.148;19.760;2022-11-23T07:37:43;15.50;47.90
21355;DHT22;10835;50.148;19.760;2022-11-23T07:40:13;15.70;47.70
21355;DHT22;10835;50.148;19.760;2022-11-23T07:42:42;15.60;47.40
21355;DHT22;10835;50.148;19.760;2022-11-23T07:45:12;15.80;47.70
21355;DHT22;10835;50.148;19.760;2022-11-23T07:47:44;15.70;47.40
21355;DHT22;10835;50.148;19.760;2022-11-23T07:50:12;15.90;47.50
21355;DHT22;10835;50.148;19.760;2022-11-23T07:52:40;15.90;46.70
21355;DHT22;10835;50.148;19.760;2022-11-23T07:55:08;15.30;47.00
21355;DHT22;10835;50.148;19.760;2022-11-23T07:57:38;15.00;48.30
21355;DHT22;10835;50.148;19.760;2022-11-23T08:00:07;15.20;48.30
21355;DHT22;10835;50.148;19.760;2022-11-23T08:02:39;15.30;48.30
21355;DHT22;10835;50.148;19.760;2022-11-23T08:05:30;15.10;48.20
21355;DHT22;10835;50.148;19.760;2022-11-23T08:07:59;14.70;48.80
21355;DHT22;10835;50.148;19.760;2022-11-23T08:10:31;15.00;49.60
21355;DHT22;10835;50.148;19.760;2022-11-23T08:13:03;15.30;49.20
21355;DHT22;10835;50.148;19.760;2022-11-23T08:15:32;15.30;49.00
21355;DHT22;10835;50.148;19.760;2022-11-23T08:18:01;15.70;48.50
21355;DHT22;10835;50.148;19.760;2022-11-23T08:20:30;16.20;47.80
21355;DHT22;10835;50.148;19.760;2022-11-23T08:22:59;16.60;47.20
21355;DHT22;10835;50.148;19.760;2022-11-23T08:25:29;16.10;46.80
21355;DHT22;10835;50.148;19.760;2022-11-23T08:28:00;16.10;47.20
21355;DHT22;10835;50.148;19.760;2022-11-23T08:30:30;15.90;47.20
21355;DHT22;10835;50.148;19.760;2022-11-23T08:33:01;15.90;47.70
21355;DHT22;10835;50.148;19.760;2022-11-23T08:35:31;15.70;47.60
21355;DHT22;10835;50.148;19.760;2022-11-23T08:37:59;15.80;48.20
21355;DHT22;10835;50.148;19.760;2022-11-23T08:40:27;16.00;47.80
21355;DHT22;10835;50.148;19.760;2022-11-23T08:42:55;15.80;47.90
21355;DHT22;10835;50.148;19.760;2022-11-23T08:45:25;15.80;48.00
21355;DHT22;10835;50.148;19.760;2022-11-23T08:47:53;15.90;47.90
21355;DHT22;10835;50.148;19.760;2022-11-23T08:50:21;15.80;47.90
21355;DHT22;10835;50.148;19.760;2022-11-23T08:52:53;15.80;47.50
21355;DHT22;10835;50.148;19.760;2022-11-23T08:55:22;15.50;48.00
21355;DHT22;10835;50.148;19.760;2022-11-23T08:57:53;15.40;48.80
21355;DHT22;10835;50.148;19.760;2022-11-23T09:00:22;15.50;48.50
21355;DHT22;10835;50.148;19.760;2022-11-23T09:02:51;15.70;48.20
21355;DHT22;10835;50.148;19.760;2022-11-23T09:05:20;15.80;48.00
21355;DHT22;10835;50.148;19.760;2022-11-23T09:07:48;15.90;48.40
21355;DHT22;10835;50.148;19.760;2022-11-23T09:10:16;15.90;48.00
21355;DHT22;10835;50.148;19.760;2022-11-23T09:12:45;15.90;47.90
21355;DHT22;10835;50.148;19.760;2022-11-23T09:15:13;15.90;48.10
21355;DHT22;10835;50.148;19.760;2022-11-23T09:17:41;15.80;47.90
21355;DHT22;10835;50.148;19.760;2022-11-23T09:20:11;15.30;48.10
21355;DHT22;10835;50.148;19.760;2022-11-23T09:22:39;15.00;49.00
21355;DHT22;10835;50.148;19.760;2022-11-23T09:25:07;14.60;49.70
21355;DHT22;10835;50.148;19.760;2022-11-23T09:27:36;14.90;50.00
21355;DHT22;10835;50.148;19.760;2022-11-23T09:30:05;14.70;50.00
21355;DHT22;10835;50.148;19.760;2022-11-23T09:32:33;14.60;50.10
21355;DHT22;10835;50.148;19.760;2022-11-23T09:35:01;14.20;50.20
21355;DHT22;10835;50.148;19.760;2022-11-23T09:37:30;14.00;51.30
21355;DHT22;10835;50.148;19.760;2022-11-23T09:39:58;14.20;51.40
21355;DHT22;10835;50.148;19.760;2022-11-23T09:42:40;14.50;51.20
21355;DHT22;10835;50.148;19.760;2022-11-23T09:45:18;15.00;50.50
21355;DHT22;10835;50.148;19.760;2022-11-23T09:48:06;15.10;50.00
21355;DHT22;10835;50.148;19.760;2022-11-23T09:50:45;15.10;49.60
21355;DHT22;10835;50.148;19.760;2022-11-23T09:53:19;14.70;49.80
21355;DHT22;10835;50.148;19.760;2022-11-23T09:55:50;14.60;50.10
21355;DHT22;10835;50.148;19.760;2022-11-23T09:58:20;14.20;50.50
21355;DHT22;10835;50.148;19.760;2022-11-23T10:00:52;13.80;51.10
21355;DHT22;10835;50.148;19.760;2022-11-23T10:03:22;13.40;52.10
21355;DHT22;10835;50.148;19.760;2022-11-23T10:05:59;13.20;52.90
21355;DHT22;10835;50.148;19.760;2022-11-23T10:08:35;13.60;52.90
21355;DHT22;10835;50.148;19.760;2022-11-23T10:11:25;13.80;52.50
21355;DHT22;10835;50.148;19.760;2022-11-23T10:14:03;14.20;52.20
21355;DHT22;10835;50.148;19.760;2022-11-23T10:16:36;14.50;51.70
21355;DHT22;10835;50.148;19.760;2022-11-23T10:19:13;14.40;51.30
21355;DHT22;10835;50.148;19.760;2022-11-23T10:21:53;14.30;51.90
21355;DHT22;10835;50.148;19.760;2022-11-23T10:24:26;14.20;51.50
21355;DHT22;10835;50.148;19.760;2022-11-23T10:26:57;14.20;52.00
21355;DHT22;10835;50.148;19.760;2022-11-23T10:29:28;14.50;51.40
21355;DHT22;10835;50.148;19.760;2022-11-23T10:31:57;14.60;51.20
21355;DHT22;10835;50.148;19.760;2022-11-23T10:34:41;15.00;50.70
21355;DHT22;10835;50.148;19.760;2022-11-23T10:37:13;15.30;50.30
21355;DHT22;10835;50.148;19.760;2022-11-23T10:39:44;15.80;49.20
21355;DHT22;10835;50.148;19.760;2022-11-23T10:42:19;15.70;48.50
21355;DHT22;10835;50.148;19.760;2022-11-23T10:44:48;15.70;48.90
21355;DHT22;10835;50.148;19.760;2022-11-23T10:47:35;15.50;48.70
21355;DHT22;10835;50.148;19.760;2022-11-23T10:50:19;15.10;49.10
21355;DHT22;10835;50.148;19.760;2022-11-23T10:52:53;14.90;49.80
21355;DHT22;10835;50.148;19.760;2022-11-23T10:55:25;14.80;50.00
21355;DHT22;10835;50.148;19.760;2022-11-23T10:57:54;15.00;50.30
21355;DHT22;10835;50.148;19.760;2022-11-23T11:00:24;15.10;49.80
21355;DHT22;10835;50.148;19.760;2022-11-23T11:02:57;15.20;49.70
21355;DHT22;10835;50.148;19.760;2022-11-23T11:05:28;15.30;49.50
21355;DHT22;10835;50.148;19.760;2022-11-23T11:08:18;15.30;49.70
21355;DHT22;10835;50.148;19.760;2022-11-23T11:10:49;15.10;49.60
21355;DHT22;10835;50.148;19.760;2022-11-23T11:13:26;14.60;50.40
21355;DHT22;10835;50.148;19.760;2022-11-23T11:15:56;14.60;50.30
21355;DHT22;10835;50.148;19.760;2022-11-23T11:18:26;14.00;51.00
21355;DHT22;10835;50.148;19.760;2022-11-23T11:20:58;13.60;52.00
21355;DHT22;10835;50.148;19.760;2022-11-23T11:23:27;13.60;52.30
21355;DHT22;10835;50.148;19.760;2022-11-23T11:26:12;13.60;52.50
21355;DHT22;10835;50.148;19.760;2022-11-23T11:28:42;14.30;52.40
21355;DHT22;10835;50.148;19.760;2022-11-23T11:31:37;14.30;51.60
21355;DHT22;10835;50.148;19.760;2022-11-23T11:34:16;14.70;50.90
21355;DHT22;10835;50.148;19.760;2022-11-23T11:36:53;14.50;50.50
21355;DHT22;10835;50.148;19.760;2022-11-23T11:39:27;14.70;50.80
21355;DHT22;10835;50.148;19.760;2022-11-23T11:42:00;14.70;50.70
21355;DHT22;10835;50.148;19.760;2022-11-23T11:44:31;14.70;50.40
21355;DHT22;10835;50.148;19.760;2022-11-23T11:47:17;14.20;51.10
21355;DHT22;10835;50.148;19.760;2022-11-23T11:49:50;14.60;51.40
21355;DHT22;10835;50.148;19.760;2022-11-23T11:52:21;15.30;50.60
21355;DHT22;10835;50.148;19.760;2022-11-23T11:54:57;15.50;49.60
21355;DHT22;10835;50.148;19.760;2022-11-23T11:57:34;15.30;49.40
21355;DHT22;10835;50.148;19.760;2022-11-23T12:00:06;15.30;49.30
21355;DHT22;10835;50.148;19.760;2022-11-23T12:02:42;14.80;49.70
21355;DHT22;10835;50.148;19.760;2022-11-23T12:05:21;14.70;50.50
21355;DHT22;10835;50.148;19.760;2022-11-23T12:07:56;14.70;50.20
21355;DHT22;10835;50.148;19.760;2022-11-23T12:10:28;14.40;50.90
21355;DHT22;10835;50.148;19.760;2022-11-23T12:13:01;14.80;51.10
21355;DHT22;10835;50.148;19.760;2022-11-23T12:15:37;15.20;50.60
21355;DHT22;10835;50.148;19.760;2022-11-23T12:18:29;15.20;50.40
21355;DHT22;10835;50.148;19.760;2022-11-23T12:21:03;14.80;49.90
21355;DHT22;10835;50.148;19.760;2022-11-23T12:23:43;14.90;50.40
21355;DHT22;10835;50.148;19.760;2022-11-23T12:26:20;14.60;50.60
21355;DHT22;10835;50.148;19.760;2022-11-23T12:29:07;14.30;51.00
21355;DHT22;10835;50.148;19.760;2022-11-23T12:31:42;14.30;51.20
21355;DHT22;10835;50.148;19.760;2022-11-23T12:34:25;14.50;51.50
21355;DHT22;10835;50.148;19.760;2022-11-23T12:37:15;14.50;50.90
21355;DHT22;10835;50.148;19.760;2022-11-23T12:42:48;14.10;52.10
21355;DHT22;10835;50.148;19.760;2022-11-23T12:45:37;14.40;52.20
21355;DHT22;10835;50.148;19.760;2022-11-23T12:48:44;15.00;51.40
21355;DHT22;10835;50.148;19.760;2022-11-23T12:51:22;15.10;50.30
21355;DHT22;10835;50.148;19.760;2022-11-23T12:54:02;15.20;50.20
21355;DHT22;10835;50.148;19.760;2022-11-23T12:56:53;15.70;49.50
21355;DHT22;10835;50.148;19.760;2022-11-23T12:59:24;15.80;49.30
21355;DHT22;10835;50.148;19.760;2022-11-23T13:01:56;16.00;48.80
21355;DHT22;10835;50.148;19.760;2022-11-23T13:04:49;16.00;48.70
21355;DHT22;10835;50.148;19.760;2022-11-23T13:07:46;15.20;49.10
21355;DHT22;10835;50.148;19.760;2022-11-23T13:10:27;15.00;50.00
21355;DHT22;10835;50.148;19.760;2022-11-23T13:16:29;15.60;50.00
21355;DHT22;10835;50.148;19.760;2022-11-23T13:19:19;15.60;49.30
21355;DHT22;10835;50.148;19.760;2022-11-23T13:21:55;15.80;49.10
21355;DHT22;10835;50.148;19.760;2022-11-23T13:24:30;15.20;49.30
21355;DHT22;10835;50.148;19.760;2022-11-23T13:27:29;14.90;50.20
21355;DHT22;10835;50.148;19.760;2022-11-23T13:29:58;14.90;50.50
21355;DHT22;10835;50.148;19.760;2022-11-23T13:32:44;15.00;50.80
21355;DHT22;10835;50.148;19.760;2022-11-23T13:35:46;15.20;50.40
21355;DHT22;10835;50.148;19.760;2022-11-23T13:38:23;15.30;50.20
21355;DHT22;10835;50.148;19.760;2022-11-23T13:40:52;15.60;49.80
21355;DHT22;10835;50.148;19.760;2022-11-23T13:43:22;15.60;49.50
21355;DHT22;10835;50.148;19.760;2022-11-23T13:46:20;15.70;49.40
21355;DHT22;10835;50.148;19.760;2022-11-23T13:48:50;15.90;49.30
21355;DHT22;10835;50.148;19.760;2022-11-23T13:51:25;16.00;49.00
21355;DHT22;10835;50.148;19.760;2022-11-23T13:53:58;15.70;48.90
21355;DHT22;10835;50.148;19.760;2022-11-23T13:56:31;15.50;49.20
21355;DHT22;10835;50.148;19.760;2022-11-23T13:59:26;15.40;49.50
21355;DHT22;10835;50.148;19.760;2022-11-23T14:05:29;15.10;49.50
21355;DHT22;10835;50.148;19.760;2022-11-23T14:07:59;15.00;50.10
21355;DHT22;10835;50.148;19.760;2022-11-23T14:10:30;14.80;50.50
21355;DHT22;10835;50.148;19.760;2022-11-23T14:13:01;14.90;50.60
21355;DHT22;10835;50.148;19.760;2022-11-23T14:15:33;15.20;50.80
21355;DHT22;10835;50.148;19.760;2022-11-23T14:18:19;15.10;50.00
21355;DHT22;10835;50.148;19.760;2022-11-23T14:21:02;15.10;50.00
21355;DHT22;10835;50.148;19.760;2022-11-23T14:26:50;15.30;50.00
21355;DHT22;10835;50.148;19.760;2022-11-23T14:29:27;15.50;49.60
21355;DHT22;10835;50.148;19.760;2022-11-23T14:32:12;15.60;49.80
21355;DHT22;10835;50.148;19.760;2022-11-23T14:34:52;15.70;49.90
21355;DHT22;10835;50.148;19.760;2022-11-23T14:37:31;15.80;49.20
21355;DHT22;10835;50.148;19.760;2022-11-23T14:40:10;15.70;49.10
21355;DHT22;10835;50.148;19.760;2022-11-23T14:42:43;15.50;49.50
21355;DHT22;10835;50.148;19.760;2022-11-23T14:45:13;15.30;49.90
21355;DHT22;10835;50.148;19.760;2022-11-23T14:47:41;15.30;50.00
21355;DHT22;10835;50.148;19.760;2022-11-23T14:50:23;15.40;50.20
21355;DHT22;10835;50.148;19.760;2022-11-23T14:52:56;15.10;50.00
21355;DHT22;10835;50.148;19.760;2022-11-23T14:55:27;14.80;51.00
21355;DHT22;10835;50.148;19.760;2022-11-23T14:58:00;15.00;50.70
21355;DHT22;10835;50.148;19.760;2022-11-23T15:00:32;15.60;50.80
21355;DHT22;10835;50.148;19.760;2022-11-23T15:03:06;15.60;49.90
21355;DHT22;10835;50.148;19.760;2022-11-23T15:06:04;15.60;49.70
21355;DHT22;10835;50.148;19.760;2022-11-23T15:08:40;16.40;49.20
21355;DHT22;10835;50.148;19.760;2022-11-23T15:11:12;16.80;48.20
21355;DHT22;10835;50.148;19.760;2022-11-23T15:13:44;17.00;47.60
21355;DHT22;10835;50.148;19.760;2022-11-23T15:16:15;17.20;47.10
21355;DHT22;10835;50.148;19.760;2022-11-23T15:18:46;17.60;46.70
21355;DHT22;10835;50.148;19.760;2022-11-23T15:21:18;17.10;46.50
21355;DHT22;10835;50.148;19.760;2022-11-23T15:23:54;16.50;47.00
21355;DHT22;10835;50.148;19.760;2022-11-23T15:26:27;16.20;48.00
21355;DHT22;10835;50.148;19.760;2022-11-23T15:29:31;16.40;48.40
21355;DHT22;10835;50.148;19.760;2022-11-23T15:32:21;16.60;48.00
21355;DHT22;10835;50.148;19.760;2022-11-23T15:35:02;16.80;48.00
21355;DHT22;10835;50.148;19.760;2022-11-23T15:37:36;16.90;47.30
21355;DHT22;10835;50.148;19.760;2022-11-23T15:40:10;17.10;47.00
21355;DHT22;10835;50.148;19.760;2022-11-23T15:42:39;16.80;47.30
21355;DHT22;10835;50.148;19.760;2022-11-23T15:45:36;16.00;47.90
21355;DHT22;10835;50.148;19.760;2022-11-23T15:48:09;15.70;48.70
21355;DHT22;10835;50.148;19.760;2022-11-23T15:50:50;16.30;48.80
21355;DHT22;10835;50.148;19.760;2022-11-23T15:53:20;16.50;48.40
21355;DHT22;10835;50.148;19.760;2022-11-23T15:55:51;16.60;48.40
21355;DHT22;10835;50.148;19.760;2022-11-23T15:58:20;16.60;48.20
21355;DHT22;10835;50.148;19.760;2022-11-23T16:00:54;16.70;47.80
21355;DHT22;10835;50.148;19.760;2022-11-23T16:03:32;16.80;47.70
21355;DHT22;10835;50.148;19.760;2022-11-23T16:06:14;16.30;47.70